Time;durP1;ratioP1;P1;durP2;ratioP2;P2;SDS_P1;SDS_P2;PMS_P1;PMS_P2;Temp;Humidity;BMP_temperature;BMP_pressure;BME280_temperature;BME280_humidity;BME280_pressure;Samples;Min_cycle;Max_cycle;Signal;HPM_P1;HPM_P2
2023/09/26 00:08:45;;;;;;;26.90;16.30;;;;;;;19.73;81.36;99980.40;231527;224;723540;-59
2023/09/26 00:13:50;;;;;;;26.00;16.90;;;;;;;19.79;81.31;99979.88;232707;214;137155;-60
2023/09/26 00:18:56;;;;;;;27.00;17.30;;;;;;;19.80;81.11;99973.77;232697;214;143924;-61
2023/09/26 00:24:05;;;;;;;25.60;16.50;;;;;;;19.79;81.18;99969.73;232725;214;139684;-56
2023/09/26 00:29:09;;;;;;;23.00;15.30;;;;;;;19.79;81.24;99967.95;232766;214;138665;-60
2023/09/26 00:34:15;;;;;;;25.90;16.60;;;;;;;19.78;81.31;99971.31;232766;214;143653;-61
2023/09/26 00:39:21;;;;;;;29.20;15.10;;;;;;;19.76;81.26;99976.88;232741;214;138756;-61
2023/09/26 00:44:24;;;;;;;24.00;14.80;;;;;;;19.73;81.59;99971.88;232805;214;136846;-60
2023/09/26 00:49:33;;;;;;;23.10;14.00;;;;;;;19.67;81.35;99968.08;232801;214;143897;-60
2023/09/26 00:54:38;;;;;;;20.10;13.30;;;;;;;19.64;81.74;99963.66;232694;214;139966;-59
2023/09/26 00:59:43;;;;;;;25.80;15.70;;;;;;;19.71;81.90;99959.80;232931;214;138768;-58
2023/09/26 01:04:48;;;;;;;21.90;14.70;;;;;;;19.72;81.79;99962.42;232705;214;145530;-57
2023/09/26 01:09:51;;;;;;;22.40;15.30;;;;;;;19.75;81.86;99960.01;232737;214;138999;-59
2023/09/26 01:14:57;;;;;;;24.50;14.80;;;;;;;19.76;81.68;99962.59;232984;214;138624;-59
2023/09/26 01:20:11;;;;;;;25.60;16.20;;;;;;;19.74;81.50;99963.89;232742;215;150543;-59
2023/09/26 01:25:17;;;;;;;25.10;17.60;;;;;;;19.69;81.74;99961.07;232923;215;137842;-60
2023/09/26 01:30:22;;;;;;;16.50;12.20;;;;;;;19.75;81.77;99961.79;232678;215;138231;-59
2023/09/26 01:35:27;;;;;;;20.00;12.40;;;;;;;19.76;81.05;99960.88;232830;215;147145;-59
2023/09/26 01:40:32;;;;;;;23.40;12.70;;;;;;;19.74;80.85;99958.55;232815;215;140422;-57
2023/09/26 01:45:37;;;;;;;16.90;11.20;;;;;;;19.73;80.98;99946.91;232750;215;138276;-63
2023/09/26 01:50:41;;;;;;;18.40;12.90;;;;;;;19.82;80.77;99948.62;232966;215;146505;-61
2023/09/26 01:55:46;;;;;;;15.40;11.60;;;;;;;19.82;80.56;99942.34;232845;215;139002;-59
2023/09/26 02:00:50;;;;;;;16.30;10.20;;;;;;;19.77;80.26;99943.66;232784;215;136975;-59
2023/09/26 02:05:56;;;;;;;13.20;7.70;;;;;;;19.69;80.19;99933.89;232762;214;146181;-60
2023/09/26 02:11:02;;;;;;;9.70;7.20;;;;;;;19.75;79.76;99929.61;232777;215;138912;-59
2023/09/26 02:16:13;;;;;;;8.90;5.90;;;;;;;19.72;79.19;99928.82;232869;215;136534;-58
2023/09/26 02:21:20;;;;;;;11.00;6.30;;;;;;;19.69;79.26;99926.17;232776;215;146306;-58
2023/09/26 02:26:24;;;;;;;10.90;6.80;;;;;;;19.70;79.15;99921.98;232960;215;141090;-60
2023/09/26 02:31:29;;;;;;;7.30;5.80;;;;;;;19.75;78.91;99922.23;232754;215;138282;-59
2023/09/26 02:36:35;;;;;;;8.20;6.10;;;;;;;19.74;78.29;99921.20;232790;215;145813;-59
2023/09/26 02:41:39;;;;;;;7.40;5.90;;;;;;;19.71;78.46;99921.82;232794;214;138721;-57
2023/09/26 02:46:43;;;;;;;11.50;6.40;;;;;;;19.69;78.58;99918.77;232681;214;136903;-59
2023/09/26 02:51:46;;;;;;;10.80;8.10;;;;;;;19.64;78.75;99921.02;232722;214;145516;-60
2023/09/26 02:56:52;;;;;;;;;;;;;;;19.63;78.77;99917.42;232973;215;138688;-57
2023/09/26 03:01:57;;;;;;;9.80;7.50;;;;;;;19.57;78.63;99915.77;232949;215;131044;-59
2023/09/26 03:07:03;;;;;;;136.20;115.40;;;;;;;19.44;78.85;99905.52;232783;214;145720;-57
2023/09/26 03:12:08;;;;;;;;;;;;;;;19.36;79.41;99899.39;232707;214;140699;-57
2023/09/26 03:17:12;;;;;;;10.80;8.30;;;;;;;19.41;79.85;99902.95;232783;215;131140;-60
2023/09/26 03:22:17;;;;;;;11.00;8.20;;;;;;;19.44;79.36;99901.78;232718;214;145810;-59
2023/09/26 03:27:23;;;;;;;101.60;86.00;;;;;;;19.38;78.83;99903.77;232602;214;138777;-59
2023/09/26 03:32:28;;;;;;;13.70;10.00;;;;;;;19.29;78.90;99901.83;232921;215;139644;-59
2023/09/26 03:37:33;;;;;;;;;;;;;;;19.17;78.74;99901.34;232778;215;146606;-59
2023/09/26 03:42:37;;;;;;;16.10;12.40;;;;;;;19.32;80.82;99900.80;232798;215;139324;-58
2023/09/26 03:47:42;;;;;;;13.90;10.10;;;;;;;19.55;80.31;99906.30;232797;214;138178;-60
2023/09/26 03:52:49;;;;;;;17.50;11.20;;;;;;;19.66;79.68;99902.52;232763;214;145668;-60
2023/09/26 03:57:52;;;;;;;18.50;9.80;;;;;;;19.77;79.53;99900.42;232776;214;140546;-61
2023/09/26 04:03:01;;;;;;;484.10;414.30;;;;;;;19.87;78.77;99900.42;233232;215;138436;-61
2023/09/26 04:08:07;;;;;;;25.20;18.10;;;;;;;19.70;77.88;99905.71;232847;215;145660;-59
2023/09/26 04:13:11;;;;;;;20.30;11.50;;;;;;;19.51;78.23;99908.96;232850;215;138963;-61
2023/09/26 04:18:17;;;;;;;18.60;11.00;;;;;;;19.38;78.85;99907.14;232771;215;137219;-61
2023/09/26 04:23:21;;;;;;;116.20;85.90;;;;;;;19.27;79.33;99905.04;232782;215;145448;-60
2023/09/26 04:28:26;;;;;;;31.10;20.90;;;;;;;19.22;79.84;99908.02;232570;215;139827;-60
2023/09/26 04:33:31;;;;;;;14.80;11.50;;;;;;;19.19;79.85;99912.40;232881;214;138249;-60
2023/09/26 04:38:37;;;;;;;16.80;11.50;;;;;;;19.11;79.84;99918.19;232929;215;145602;-61
2023/09/26 04:43:40;;;;;;;;;;;;;;;19.02;79.94;99925.11;233298;215;138715;-60
2023/09/26 04:48:44;;;;;;;19.40;12.50;;;;;;;18.92;80.20;99934.98;233563;215;131089;-60
2023/09/26 04:53:48;;;;;;;18.30;12.90;;;;;;;18.81;80.45;99938.16;233446;215;146361;-57
2023/09/26 04:58:53;;;;;;;18.60;12.90;;;;;;;18.76;80.78;99941.45;233532;215;139514;-58
2023/09/26 05:03:58;;;;;;;25.10;14.50;;;;;;;18.78;81.11;99943.98;233454;215;131000;-59
2023/09/26 05:09:08;;;;;;;20.30;14.30;;;;;;;18.82;81.16;99939.31;232968;215;147192;-56
2023/09/26 05:14:13;;;;;;;20.80;14.30;;;;;;;18.83;81.18;99937.24;232925;215;140242;-60
2023/09/26 05:19:17;;;;;;;20.60;13.30;;;;;;;18.80;81.22;99936.96;232881;214;138797;-60
2023/09/26 05:24:25;;;;;;;19.50;13.80;;;;;;;18.80;81.49;99931.10;232856;215;146349;-58
2023/09/26 05:29:33;;;;;;;22.70;14.80;;;;;;;18.82;81.57;99933.40;232913;215;138879;-61
2023/09/26 05:34:41;;;;;;;23.80;14.80;;;;;;;18.84;81.66;99938.31;232871;214;138013;-60
2023/09/26 05:39:48;;;;;;;24.00;14.70;;;;;;;18.85;81.71;99949.67;232927;215;145501;-58
2023/09/26 05:44:58;;;;;;;22.80;13.10;;;;;;;18.83;81.76;99951.81;232975;215;138664;-60
2023/09/26 05:50:05;;;;;;;25.30;13.70;;;;;;;18.85;81.96;99953.33;232818;215;138486;-61
2023/09/26 05:55:09;;;;;;;39.20;15.30;;;;;;;18.92;82.27;99955.48;232792;215;145693;-60
2023/09/26 06:00:15;;;;;;;36.20;16.10;;;;;;;19.01;82.35;99954.66;232883;214;140631;-60
2023/09/26 06:05:20;;;;;;;27.40;15.10;;;;;;;19.14;82.40;99955.38;232925;215;137880;-60
2023/09/26 06:10:29;;;;;;;19.60;12.20;;;;;;;19.25;82.37;99955.73;232923;215;147472;-59
2023/09/26 06:15:34;;;;;;;19.60;12.30;;;;;;;19.36;81.94;99957.15;232972;215;140738;-60
2023/09/26 06:20:40;;;;;;;23.90;12.40;;;;;;;19.47;81.53;99958.39;232907;215;138538;-56
2023/09/26 06:25:58;;;;;;;27.80;12.10;;;;;;;19.56;81.32;99957.77;232984;215;147215;-58
2023/09/26 06:31:10;;;;;;;19.30;12.80;;;;;;;19.66;81.15;99953.24;232865;214;140142;-59
2023/09/26 06:36:19;;;;;;;20.90;11.50;;;;;;;19.72;80.77;99951.10;232774;215;141623;-59
2023/09/26 06:41:26;;;;;;;26.00;12.30;;;;;;;19.78;80.49;99949.18;232911;215;145484;-63
2023/09/26 06:46:30;;;;;;;21.80;14.30;;;;;;;19.87;80.43;99951.58;232883;214;139883;-61
2023/09/26 06:51:39;;;;;;;26.70;17.40;;;;;;;19.94;80.20;99946.83;232831;215;139277;-61
2023/09/26 06:56:44;;;;;;;25.20;14.80;;;;;;;19.99;80.10;99947.13;232812;215;146185;-60
2023/09/26 07:01:49;;;;;;;18.70;13.20;;;;;;;20.10;80.07;99951.21;232779;214;138923;-64
2023/09/26 07:06:54;;;;;;;23.40;15.70;;;;;;;20.24;79.63;99951.06;232883;215;138541;-63
2023/09/26 07:12:03;;;;;;;18.80;13.60;;;;;;;20.37;79.16;99951.63;232770;214;147690;-64
2023/09/26 07:17:09;;;;;;;19.30;12.90;;;;;;;20.45;78.90;99954.31;232860;214;139067;-59
2023/09/26 07:22:12;;;;;;;19.10;13.80;;;;;;;20.53;78.48;99956.31;232777;215;138830;-62
2023/09/26 07:27:17;;;;;;;25.00;14.20;;;;;;;20.61;78.02;99963.02;232981;214;148351;-63
2023/09/26 07:32:24;;;;;;;25.50;14.20;;;;;;;20.68;77.88;99962.04;232964;215;141830;-62
2023/09/26 07:37:43;;;;;;;18.80;14.50;;;;;;;20.79;77.64;99963.70;233116;214;138203;-62
2023/09/26 07:42:47;;;;;;;26.10;16.10;;;;;;;20.90;77.36;99958.09;232828;215;145786;-63
2023/09/26 07:47:55;;;;;;;23.60;12.40;;;;;;;20.93;77.16;99961.41;232857;215;139041;-59
2023/09/26 07:53:02;;;;;;;21.50;12.30;;;;;;;20.94;76.90;99960.06;232833;215;138785;-59
2023/09/26 07:58:08;;;;;;;18.70;11.80;;;;;;;20.99;76.74;99959.21;232841;215;146376;-58
2023/09/26 08:03:11;;;;;;;21.40;11.90;;;;;;;21.12;76.55;99955.84;232872;215;140790;-60
2023/09/26 08:08:17;;;;;;;22.40;13.40;;;;;;;21.20;76.07;99954.21;232847;215;137328;-63
2023/09/26 08:13:24;;;;;;;19.50;11.40;;;;;;;21.26;75.76;99956.92;232864;215;147241;-63
2023/09/26 08:18:29;;;;;;;20.20;11.90;;;;;;;21.30;75.39;99952.77;232766;215;145147;-61
2023/09/26 08:23:33;;;;;;;18.90;12.00;;;;;;;21.43;75.25;99953.41;232767;214;137542;-62
2023/09/26 08:28:41;;;;;;;25.70;12.90;;;;;;;21.53;74.86;99951.58;232905;215;145951;-58
2023/09/26 08:33:44;;;;;;;25.80;12.90;;;;;;;21.58;74.63;99954.71;232885;215;138708;-64
2023/09/26 08:38:52;;;;;;;25.40;11.90;;;;;;;21.65;74.33;99950.64;232777;215;137230;-58
2023/09/26 08:43:58;;;;;;;24.80;11.70;;;;;;;21.74;74.38;99949.94;232819;215;147761;-61
2023/09/26 08:49:04;;;;;;;20.00;11.40;;;;;;;21.86;73.75;99946.88;232920;215;139616;-61
2023/09/26 08:54:14;;;;;;;20.10;12.50;;;;;;;21.94;73.59;99940.29;232894;215;137204;-59
2023/09/26 08:59:20;;;;;;;20.70;12.50;;;;;;;22.10;73.21;99940.42;232871;214;147973;-60
2023/09/26 09:04:24;;;;;;;18.90;12.20;;;;;;;22.20;73.09;99936.21;232762;215;140272;-62
2023/09/26 09:09:32;;;;;;;21.20;10.10;;;;;;;22.26;72.46;99931.11;232818;215;137576;-61
2023/09/26 09:14:36;;;;;;;19.30;10.70;;;;;;;22.36;72.22;99931.77;232695;214;147445;-63
2023/09/26 09:19:50;;;;;;;21.70;11.00;;;;;;;22.50;72.00;99927.12;232881;215;138672;-63
2023/09/26 09:24:56;;;;;;;17.70;10.20;;;;;;;22.65;71.75;99922.05;232961;215;138032;-61
2023/09/26 09:30:14;;;;;;;18.20;10.80;;;;;;;22.74;71.65;99925.31;232778;215;147448;-59
2023/09/26 09:35:27;;;;;;;19.70;10.50;;;;;;;22.84;71.30;99919.44;232863;215;138827;-61
2023/09/26 09:40:31;;;;;;;13.60;9.50;;;;;;;22.92;71.05;99918.71;232897;215;138733;-64
2023/09/26 09:45:40;;;;;;;18.10;14.20;;;;;;;23.04;70.51;99917.48;232853;215;150286;-61
2023/09/26 09:50:46;;;;;;;16.20;9.30;;;;;;;23.13;70.24;99911.17;232884;215;139543;-64
2023/09/26 09:55:52;;;;;;;14.30;9.60;;;;;;;23.28;70.13;99900.80;232922;215;137560;-63
2023/09/26 10:00:59;;;;;;;136.60;107.10;;;;;;;23.46;69.85;99899.16;232923;215;149528;-59
2023/09/26 10:06:07;;;;;;;15.10;10.50;;;;;;;23.63;69.34;99898.06;232730;215;139247;-60
2023/09/26 10:11:13;;;;;;;15.10;8.80;;;;;;;23.74;68.21;99895.34;232887;215;138517;-61
2023/09/26 10:16:18;;;;;;;13.80;8.20;;;;;;;23.84;68.04;99893.04;232923;215;147476;-62
2023/09/26 10:21:26;;;;;;;9.70;7.40;;;;;;;24.01;67.79;99893.07;232938;215;139015;-62
2023/09/26 10:26:40;;;;;;;14.60;8.30;;;;;;;24.21;67.29;99893.48;232788;215;137980;-62
2023/09/26 10:31:54;;;;;;;15.10;8.20;;;;;;;24.44;67.16;99890.94;232875;213;147625;-59
2023/09/26 10:37:00;;;;;;;32.80;25.30;;;;;;;24.52;66.25;99882.61;232818;213;140416;-64
2023/09/26 10:42:16;;;;;;;11.90;8.40;;;;;;;24.59;65.96;99881.17;232856;215;137941;-64
2023/09/26 10:47:24;;;;;;;11.70;7.00;;;;;;;24.63;66.15;99877.14;232872;215;148529;-61
2023/09/26 10:52:30;;;;;;;8.40;6.20;;;;;;;24.69;66.03;99877.93;232965;215;140075;-61
2023/09/26 10:57:38;;;;;;;12.90;7.40;;;;;;;24.74;65.53;99872.51;232806;215;137168;-61
2023/09/26 11:02:47;;;;;;;11.00;7.50;;;;;;;24.73;65.19;99871.87;232759;215;148084;-59
2023/09/26 11:07:54;;;;;;;15.70;7.90;;;;;;;24.75;65.38;99869.12;232894;215;141028;-62
2023/09/26 11:13:02;;;;;;;13.50;7.40;;;;;;;24.72;65.05;99874.30;232784;215;137205;-62
2023/09/26 11:18:15;;;;;;;10.80;6.90;;;;;;;24.71;65.42;99872.46;232811;215;150911;-58
2023/09/26 11:23:36;;;;;;;12.40;7.40;;;;;;;24.75;65.43;99866.02;232751;215;138809;-63
2023/09/26 11:28:43;;;;;;;10.80;7.20;;;;;;;24.86;65.36;99865.80;232905;215;137596;-64
2023/09/26 11:33:48;;;;;;;10.10;7.80;;;;;;;24.94;64.50;99857.92;233010;215;148151;-63
2023/09/26 11:38:53;;;;;;;9.30;6.90;;;;;;;24.96;64.65;99854.52;232808;215;138266;-63
2023/09/26 11:44:15;;;;;;;11.00;7.40;;;;;;;25.08;64.76;99853.11;232893;215;137215;-62
2023/09/26 11:49:24;;;;;;;20.10;12.00;;;;;;;25.31;64.46;99847.64;232763;215;147441;-60
2023/09/26 11:54:28;;;;;;;18.90;12.20;;;;;;;25.51;64.24;99850.01;232859;215;138739;-63
2023/09/26 11:59:32;;;;;;;17.40;11.80;;;;;;;25.66;63.76;99844.76;232872;215;140970;-64
2023/09/26 12:04:39;;;;;;;10.80;8.90;;;;;;;25.84;63.18;99840.19;232860;215;149697;-61
2023/09/26 12:09:44;;;;;;;14.60;8.80;;;;;;;25.84;62.91;99833.29;233034;215;139325;-65
2023/09/26 12:14:50;;;;;;;;;;;;;;;25.77;63.12;99831.16;233006;215;138004;-61
2023/09/26 12:19:55;;;;;;;15.80;9.40;;;;;;;25.63;63.19;99827.98;232919;215;147267;-62
2023/09/26 12:24:59;;;;;;;21.00;11.90;;;;;;;25.49;63.29;99822.65;232916;215;139820;-63
2023/09/26 12:30:06;;;;;;;14.60;10.20;;;;;;;25.39;63.66;99818.10;232812;215;138473;-61
2023/09/26 12:35:10;;;;;;;16.10;10.30;;;;;;;25.30;63.66;99819.29;232771;215;146928;-61
2023/09/26 12:40:14;;;;;;;16.30;11.00;;;;;;;25.25;63.75;99811.16;233113;215;138729;-61
2023/09/26 12:45:18;;;;;;;16.30;10.20;;;;;;;25.23;64.16;99810.27;232789;215;140312;-62
2023/09/26 12:50:26;;;;;;;14.80;10.90;;;;;;;25.27;64.24;99807.91;232827;215;147754;-61
2023/09/26 12:55:30;;;;;;;18.40;11.20;;;;;;;25.39;64.28;99804.71;232817;215;139912;-62
2023/09/26 13:00:34;;;;;;;16.90;11.20;;;;;;;25.51;64.24;99797.40;232867;215;138794;-60
2023/09/26 13:05:40;;;;;;;20.10;12.30;;;;;;;25.62;63.77;99793.56;232693;215;147821;-63
2023/09/26 13:10:46;;;;;;;12.80;10.60;;;;;;;25.86;63.55;99790.49;232976;215;138823;-63
2023/09/26 13:15:52;;;;;;;13.10;10.80;;;;;;;26.29;63.20;99784.64;232866;215;137665;-64
2023/09/26 13:20:56;;;;;;;15.50;10.20;;;;;;;26.76;62.26;99780.80;232776;215;148029;-62
2023/09/26 13:26:02;;;;;;;14.00;10.20;;;;;;;27.25;61.15;99774.45;232709;215;142448;-60
2023/09/26 13:31:07;;;;;;;14.90;9.50;;;;;;;27.76;60.12;99774.23;232935;215;138102;-64
2023/09/26 13:36:11;;;;;;;11.70;9.00;;;;;;;28.15;58.50;99772.76;232932;216;147589;-66
2023/09/26 13:41:14;;;;;;;14.10;9.30;;;;;;;28.19;56.88;99771.33;232954;216;139021;-65
2023/09/26 13:51:26;;;;;;;11.20;8.50;;;;;;;27.46;56.90;99769.70;231327;223;723181;-64
2023/09/26 13:56:30;;;;;;;13.10;9.20;;;;;;;27.02;57.35;99771.11;232522;218;137050;-63
2023/09/26 14:01:35;;;;;;;15.50;9.80;;;;;;;26.66;58.04;99769.57;232950;216;143795;-67
2023/09/26 14:06:40;;;;;;;14.80;9.70;;;;;;;26.34;58.72;99773.89;232873;216;138864;-61
2023/09/26 14:11:44;;;;;;;13.70;9.20;;;;;;;26.03;59.35;99772.55;232949;217;136712;-65
2023/09/26 14:16:47;;;;;;;14.50;9.60;;;;;;;25.78;59.99;99770.66;232893;216;143771;-65
2023/09/26 14:21:50;;;;;;;13.50;9.30;;;;;;;25.56;60.11;99775.02;232992;215;138787;-65
2023/09/26 14:26:55;;;;;;;16.60;9.30;;;;;;;25.41;60.85;99773.98;232905;216;138028;-63
2023/09/26 14:32:02;;;;;;;15.00;10.40;;;;;;;25.28;61.18;99770.48;233262;216;145488;-64
2023/09/26 14:37:06;;;;;;;16.30;9.50;;;;;;;25.12;61.20;99764.98;232970;215;138924;-63
2023/09/26 14:42:09;;;;;;;15.30;10.90;;;;;;;25.01;61.77;99764.55;232922;216;137830;-66
2023/09/26 14:47:13;;;;;;;12.40;9.50;;;;;;;24.91;61.77;99761.00;233021;216;147049;-64
2023/09/26 14:52:19;;;;;;;13.80;9.10;;;;;;;24.77;61.85;99759.56;233085;216;138816;-64
2023/09/26 14:57:23;;;;;;;198.90;171.20;;;;;;;24.69;62.36;99758.19;232935;215;139477;-63
2023/09/26 15:02:28;;;;;;;18.80;13.00;;;;;;;24.66;62.64;99759.39;232803;215;146776;-62
2023/09/26 15:07:33;;;;;;;13.40;9.10;;;;;;;24.63;62.51;99750.88;232914;215;138880;-63
2023/09/26 15:12:38;;;;;;;17.70;10.10;;;;;;;24.60;62.77;99755.36;233054;216;138853;-63
2023/09/26 15:17:43;;;;;;;19.80;9.20;;;;;;;24.54;62.71;99752.48;232840;216;146183;-64
2023/09/26 15:22:48;;;;;;;16.20;7.90;;;;;;;24.48;62.96;99753.56;233027;215;138952;-62
2023/09/26 15:27:55;;;;;;;25.20;9.60;;;;;;;24.46;63.38;99749.65;232953;216;138080;-64
2023/09/26 15:33:01;;;;;;;19.40;9.70;;;;;;;24.46;63.46;99748.49;233008;216;145741;-61
2023/09/26 15:38:16;;;;;;;12.60;8.80;;;;;;;24.46;63.72;99750.20;232886;216;138964;-64
2023/09/26 15:43:24;;;;;;;17.30;9.30;;;;;;;24.41;63.93;99750.51;233097;216;137361;-63
2023/09/26 15:48:30;;;;;;;17.40;9.50;;;;;;;24.36;64.13;99746.16;232886;216;145752;-63
2023/09/26 15:53:35;;;;;;;27.40;15.90;;;;;;;24.31;64.53;99744.86;232842;216;138885;-58
2023/09/26 15:58:41;;;;;;;38.30;22.50;;;;;;;24.23;64.66;99752.29;232999;216;140161;-64
2023/09/26 16:03:46;;;;;;;19.00;11.60;;;;;;;24.12;65.01;99749.09;232908;216;146139;-61
2023/09/26 16:08:51;;;;;;;16.50;9.50;;;;;;;24.03;65.52;99749.84;232914;216;140366;-62
2023/09/26 16:13:56;;;;;;;18.50;9.50;;;;;;;23.98;65.84;99752.80;232948;216;138119;-62
2023/09/26 16:19:02;;;;;;;14.50;10.40;;;;;;;23.92;66.05;99755.36;232933;216;145639;-56
2023/09/26 16:24:10;;;;;;;15.70;10.60;;;;;;;23.82;66.12;99758.06;233039;216;140568;-61
2023/09/26 16:29:14;;;;;;;31.50;19.60;;;;;;;23.67;66.51;99756.16;233042;216;139790;-63
2023/09/26 16:34:20;;;;;;;16.40;10.00;;;;;;;23.52;67.01;99756.70;232916;216;147130;-60
2023/09/26 16:39:24;;;;;;;15.00;9.40;;;;;;;23.43;67.51;99758.40;232894;216;138649;-63
2023/09/26 16:44:28;;;;;;;19.50;10.00;;;;;;;23.34;67.69;99757.63;232882;216;138215;-63
2023/09/26 16:49:34;;;;;;;19.10;10.00;;;;;;;23.22;68.04;99753.98;232830;216;147391;-63
2023/09/26 16:54:39;;;;;;;20.80;10.00;;;;;;;23.14;68.27;99758.23;232853;216;138763;-60
2023/09/26 16:59:42;;;;;;;14.10;10.20;;;;;;;23.09;68.73;99754.66;232933;216;137544;-62
2023/09/26 17:04:46;;;;;;;18.60;10.90;;;;;;;23.05;68.84;99758.47;233089;216;145551;-62
2023/09/26 17:09:51;;;;;;;;;;;;;;;22.98;69.05;99760.65;232897;216;138874;-67
2023/09/26 17:14:56;;;;;;;90.70;80.60;;;;;;;22.89;69.29;99768.05;232959;216;131132;-63
2023/09/26 17:20:04;;;;;;;60.40;48.60;;;;;;;22.79;69.74;99766.15;232900;216;145722;-64
2023/09/26 17:25:09;;;;;;;46.40;29.50;;;;;;;22.71;70.03;99768.77;233271;216;138846;-61
2023/09/26 17:30:13;;;;;;;32.50;20.40;;;;;;;22.63;70.48;99768.17;233038;216;138203;-64
2023/09/26 17:35:19;;;;;;;275.90;214.20;;;;;;;22.59;70.51;99772.88;233322;216;145980;-63
2023/09/26 17:40:24;;;;;;;56.30;46.50;;;;;;;22.56;70.43;99770.67;232785;216;138715;-62
2023/09/26 17:45:29;;;;;;;26.40;16.10;;;;;;;22.55;70.62;99772.93;232912;216;138111;-59
2023/09/26 17:50:33;;;;;;;30.40;20.10;;;;;;;22.50;70.75;99773.59;232858;216;148007;-60
2023/09/26 17:55:36;;;;;;;285.70;248.60;;;;;;;22.44;70.64;99771.45;232925;216;139728;-62
2023/09/26 18:00:41;;;;;;;48.60;34.10;;;;;;;22.37;70.51;99779.83;232962;216;139034;-63
2023/09/26 18:05:44;;;;;;;24.00;12.20;;;;;;;22.33;70.93;99783.45;233105;216;145552;-62
2023/09/26 18:10:51;;;;;;;26.00;11.90;;;;;;;22.25;69.97;99782.77;232851;216;139716;-62
2023/09/26 18:15:57;;;;;;;21.20;11.50;;;;;;;22.17;70.12;99788.28;232945;215;141232;-62
2023/09/26 18:21:01;;;;;;;;;;;;;;;22.10;70.33;99782.27;232864;214;144993;-62
2023/09/26 18:26:06;;;;;;;21.70;11.60;;;;;;;22.00;70.35;99783.03;233035;215;137909;-61
2023/09/26 18:31:11;;;;;;;17.20;12.20;;;;;;;21.94;70.88;99786.03;232927;214;137970;-63
2023/09/26 18:36:18;;;;;;;20.90;12.90;;;;;;;21.87;71.13;99782.66;233056;215;145819;-62
2023/09/26 18:41:23;;;;;;;298.40;248.70;;;;;;;21.90;71.61;99783.50;232895;214;139142;-61
2023/09/26 18:46:29;;;;;;;24.50;15.00;;;;;;;21.94;71.76;99790.11;232982;214;138921;-61
2023/09/26 18:51:34;;;;;;;19.00;12.60;;;;;;;21.91;71.79;99791.48;232742;214;145753;-64
2023/09/26 18:56:40;;;;;;;22.10;13.20;;;;;;;21.87;71.60;99796.02;232763;214;138871;-62
2023/09/26 19:01:44;;;;;;;;;;;;;;;21.82;71.74;99793.46;232728;214;138099;-60
2023/09/26 19:06:50;;;;;;;19.10;13.60;;;;;;;21.70;71.83;99798.21;232868;214;146658;-62
2023/09/26 19:11:58;;;;;;;66.10;51.30;;;;;;;21.59;72.15;99798.79;232905;214;139233;-61
2023/09/26 19:17:03;;;;;;;76.70;60.70;;;;;;;21.56;72.80;99797.06;232622;214;139402;-59
2023/09/26 19:22:06;;;;;;;22.60;14.90;;;;;;;21.58;72.85;99801.08;232597;214;148901;-65
2023/09/26 19:27:10;;;;;;;18.40;14.10;;;;;;;21.55;72.58;99805.00;232969;215;140437;-64
2023/09/26 19:32:14;;;;;;;21.60;15.30;;;;;;;21.51;72.93;99804.42;232783;215;137746;-62
2023/09/26 19:37:20;;;;;;;24.90;15.10;;;;;;;21.46;73.00;99801.96;232795;214;145791;-64
2023/09/26 19:42:25;;;;;;;;;;;;;;;21.40;73.12;99799.86;232829;213;140720;-65
2023/09/26 19:47:30;;;;;;;21.60;16.00;;;;;;;21.27;73.30;99798.88;233054;214;131099;-62
2023/09/26 19:52:36;;;;;;;23.00;15.30;;;;;;;21.16;73.67;99795.42;232818;214;146471;-62
2023/09/26 19:57:43;;;;;;;21.90;14.20;;;;;;;21.11;74.08;99802.27;232666;214;138840;-62
2023/09/26 20:02:50;;;;;;;22.30;15.40;;;;;;;21.10;74.33;99797.06;232760;214;141146;-62
2023/09/26 20:07:56;;;;;;;23.90;16.90;;;;;;;21.12;74.32;99796.14;232708;214;145805;-61
2023/09/26 20:13:00;;;;;;;;;;;;;;;21.12;74.44;99796.34;232855;214;138824;-62
2023/09/26 20:18:06;;;;;;;27.90;18.20;;;;;;;21.06;74.36;99790.19;233009;214;131102;-61
2023/09/26 20:23:10;;;;;;;25.40;17.60;;;;;;;20.98;74.76;99790.20;232772;215;146530;-63
2023/09/26 20:28:21;;;;;;;30.70;17.80;;;;;;;20.93;74.91;99792.34;232653;214;138587;-62
2023/09/26 20:33:27;;;;;;;23.70;18.70;;;;;;;20.95;75.13;99792.54;232526;214;137181;-62
2023/09/26 20:38:34;;;;;;;26.40;18.10;;;;;;;20.95;75.15;99794.50;232793;214;146003;-62
2023/09/26 20:43:37;;;;;;;27.70;18.80;;;;;;;20.93;75.16;99795.79;232758;214;140722;-57
2023/09/26 20:48:42;;;;;;;25.60;18.70;;;;;;;20.86;75.17;99796.77;232654;215;137362;-63
2023/09/26 20:53:48;;;;;;;26.90;17.40;;;;;;;20.75;75.32;99797.41;232859;214;145875;-62
2023/09/26 20:58:52;;;;;;;26.50;17.70;;;;;;;20.68;75.50;99791.96;232578;214;139074;-61
2023/09/26 21:03:57;;;;;;;26.60;19.00;;;;;;;20.66;75.74;99791.80;232742;214;137822;-64
2023/09/26 21:09:06;;;;;;;25.40;19.60;;;;;;;20.64;75.83;99794.46;232755;215;146695;-60
2023/09/26 21:14:09;;;;;;;28.80;19.40;;;;;;;20.60;75.88;99794.14;232667;214;138917;-61
2023/09/26 21:19:16;;;;;;;30.30;20.40;;;;;;;20.54;76.00;99795.02;232699;215;138133;-64
2023/09/26 21:24:24;;;;;;;29.40;19.40;;;;;;;20.46;76.06;99795.77;232796;214;146634;-59
2023/09/26 21:29:29;;;;;;;24.80;18.00;;;;;;;20.42;76.36;99795.71;232784;215;140031;-61
2023/09/26 21:34:33;;;;;;;28.10;19.70;;;;;;;20.40;76.33;99794.34;232772;215;137803;-62
2023/09/26 21:39:38;;;;;;;24.00;19.40;;;;;;;20.34;76.29;99795.95;232710;215;146365;-57
2023/09/26 21:44:43;;;;;;;31.90;21.30;;;;;;;20.27;76.24;99794.54;232751;215;139430;-62
2023/09/26 21:49:47;;;;;;;27.00;20.70;;;;;;;20.20;76.24;99794.83;232770;215;137625;-60
2023/09/26 21:54:52;;;;;;;27.90;17.80;;;;;;;20.12;76.28;99794.52;232940;215;145837;-61
2023/09/26 22:00:00;;;;;;;22.70;18.30;;;;;;;20.03;76.59;99793.10;233012;215;139690;-60
2023/09/26 22:05:21;;;;;;;24.20;19.60;;;;;;;20.03;76.67;99795.86;232698;215;140140;-62
2023/09/26 22:10:27;;;;;;;29.70;20.80;;;;;;;20.00;76.73;99798.23;232623;215;146641;-57
2023/09/26 22:15:31;;;;;;;26.30;20.60;;;;;;;19.97;76.73;99800.55;232701;214;138915;-63
2023/09/26 22:20:37;;;;;;;28.40;20.40;;;;;;;19.89;76.73;99798.94;232703;214;138176;-61
2023/09/26 22:25:43;;;;;;;27.50;20.20;;;;;;;19.80;76.97;99793.70;232485;214;146470;-62
2023/09/26 22:30:48;;;;;;;28.50;18.80;;;;;;;19.76;77.10;99791.61;232618;214;138952;-59
2023/09/26 22:35:54;;;;;;;29.50;20.70;;;;;;;19.73;77.41;99785.88;232861;214;137897;-62
2023/09/26 22:40:59;;;;;;;24.90;20.40;;;;;;;19.71;77.27;99783.77;232670;214;147651;-61
2023/09/26 22:46:04;;;;;;;27.20;20.60;;;;;;;19.65;77.43;99777.96;232905;214;139160;-57
2023/09/26 22:51:09;;;;;;;27.60;19.80;;;;;;;19.57;77.42;99777.91;232738;214;138013;-60
2023/09/26 22:56:14;;;;;;;25.70;18.40;;;;;;;19.50;77.66;99782.32;232829;214;147589;-61
2023/09/26 23:01:20;;;;;;;;;;;;;;;19.42;77.48;99781.33;232975;213;140127;-57
2023/09/26 23:06:25;;;;;;;28.00;18.10;;;;;;;19.36;77.26;99777.77;232758;213;133073;-59
2023/09/26 23:11:29;;;;;;;21.70;18.10;;;;;;;19.31;77.26;99781.45;232728;214;147194;-60
2023/09/26 23:16:39;;;;;;;26.70;17.20;;;;;;;19.25;76.89;99782.83;232741;214;138852;-61
2023/09/26 23:21:45;;;;;;;24.20;17.50;;;;;;;19.17;76.79;99790.89;232768;214;141862;-62
2023/09/26 23:26:49;;;;;;;23.20;16.80;;;;;;;19.08;76.87;99792.36;232671;214;148363;-61
2023/09/26 23:31:59;;;;;;;26.90;16.90;;;;;;;19.00;76.85;99795.81;232836;214;139020;-60